ダラス/フォートワース の空港の天気 - METARとTAF

ダラス・フォートワース国際空港 ( KDFW / DFW ) - アメリカ テキサス州ダラス & フォートワース
飛行場実況気象(Metar)
観測時間12/09 22:53 CST (12/10 04:53 UTC)
風向・風速北西 5m/s
視程10km以上
天気現象
なし
気温3.9℃
湿度70%
気圧1028.1hPa
METARKDFW 100453Z 32010KT 10SM CLR 04/M01 A3036 RMK AO2 SLP281 T00391011 $
過去の天気等 Google飛行場航空写真 Wunderground天気予報

過去48時間のMETAR

飛行場予報(TAF)
発表時間: 12/09 23:25 CST (12/10 05:25 UTC)
予報対象時間: 10日0時 CST ~ 11日6時 CST
風向・風速西北西 3m/s
視程10km以上
なし
10日17時 CST から
風向・風速南 2m/s
視程10km以上
なし
KDFW 100525Z 1006/1112 30006KT P6SM SKC
FM102300 19004KT P6SM SKC